Time;durP1;ratioP1;P1;durP2;ratioP2;P2;SDS_P1;SDS_P2;PMS_P1;PMS_P2;Temp;Humidity;BMP_temperature;BMP_pressure;BME280_temperature;BME280_humidity;BME280_pressure;Samples;Min_cycle;Max_cycle;Signal;HPM_P1;HPM_P2
2021/07/01 00:01:51;;;;;;;17.07;12.00;;;18.80;99.90;;;;;;5085499;28;20191;-70
2021/07/01 00:04:16;;;;;;;17.17;11.30;;;18.80;99.90;;;;;;5081822;28;20596;-70
2021/07/01 00:06:42;;;;;;;16.57;10.20;;;18.80;99.90;;;;;;5088766;28;20266;-70
2021/07/01 00:09:14;;;;;;;15.03;10.20;;;18.70;99.90;;;;;;5087661;28;20226;-71
2021/07/01 00:11:40;;;;;;;16.17;11.27;;;18.70;99.90;;;;;;5086546;28;20180;-70
2021/07/01 00:14:06;;;;;;;16.57;10.90;;;18.80;99.90;;;;;;5088851;28;20237;-70
2021/07/01 00:16:32;;;;;;;17.23;9.97;;;18.80;99.90;;;;;;5088723;28;20172;-69
2021/07/01 00:18:57;;;;;;;14.77;10.87;;;18.80;99.90;;;;;;5070609;28;20263;-70
2021/07/01 00:21:22;;;;;;;13.97;10.43;;;18.80;99.90;;;;;;5089250;28;20184;-69
2021/07/01 00:23:48;;;;;;;11.57;10.37;;;18.80;99.90;;;;;;5089530;28;20199;-70
2021/07/01 00:26:13;;;;;;;19.77;11.40;;;18.80;99.90;;;;;;5088622;28;20220;-71
2021/07/01 00:28:39;;;;;;;16.37;11.20;;;18.70;99.90;;;;;;5089449;28;20209;-69
2021/07/01 00:31:04;;;;;;;12.53;9.90;;;18.80;99.90;;;;;;5087911;28;20204;-70
2021/07/01 00:33:30;;;;;;;12.37;8.23;;;18.70;99.90;;;;;;5089364;28;20184;-69
2021/07/01 00:35:55;;;;;;;15.27;10.83;;;18.70;99.90;;;;;;5087248;28;20553;-69
2021/07/01 00:38:21;;;;;;;16.37;10.50;;;18.70;99.90;;;;;;5089168;28;20204;-70
2021/07/01 00:40:46;;;;;;;13.87;11.07;;;18.70;99.90;;;;;;5088800;28;20577;-70
2021/07/01 00:43:12;;;;;;;12.17;10.57;;;18.70;99.90;;;;;;5088948;28;20188;-70
2021/07/01 00:45:38;;;;;;;13.63;9.70;;;18.70;99.90;;;;;;5089162;28;20172;-70
2021/07/01 00:48:03;;;;;;;15.63;9.87;;;18.70;99.90;;;;;;5088243;28;20597;-71
2021/07/01 00:50:29;;;;;;;12.37;9.27;;;18.70;99.90;;;;;;5088787;28;20196;-70
2021/07/01 00:52:55;;;;;;;13.43;10.63;;;18.70;99.90;;;;;;5087734;28;20553;-70
2021/07/01 00:55:20;;;;;;;13.47;10.50;;;18.70;99.90;;;;;;5090474;28;20200;-71
2021/07/01 00:57:46;;;;;;;11.00;9.13;;;18.70;99.90;;;;;;5093253;28;20541;-71
2021/07/01 01:02:57;;;;;;;12.80;9.37;;;18.80;99.90;;;;;;5093550;28;20203;-70
2021/07/01 01:05:23;;;;;;;15.73;10.23;;;18.80;99.90;;;;;;5091431;28;20197;-70
2021/07/01 01:07:50;;;;;;;14.93;9.63;;;18.90;99.90;;;;;;5092846;28;20231;-70
2021/07/01 01:10:15;;;;;;;13.07;10.00;;;18.90;99.90;;;;;;5091689;28;20687;-70
2021/07/01 01:12:41;;;;;;;12.07;10.40;;;18.90;99.90;;;;;;5092571;28;20179;-70
2021/07/01 01:15:07;;;;;;;14.27;10.17;;;18.90;99.90;;;;;;5106839;22;20220;-79
2021/07/01 01:17:33;;;;;;;14.03;11.17;;;18.90;99.90;;;;;;5088012;28;20187;-80
2021/07/01 01:19:58;;;;;;;12.33;9.93;;;18.90;99.90;;;;;;5092332;28;20184;-80
2021/07/01 01:22:24;;;;;;;14.33;10.63;;;19.00;99.90;;;;;;5094342;28;20204;-80
2021/07/01 01:24:50;;;;;;;14.37;9.63;;;18.90;99.90;;;;;;5094945;28;20299;-79
2021/07/01 01:27:16;;;;;;;12.97;9.00;;;18.90;99.90;;;;;;5095739;28;20228;-79
2021/07/01 01:29:43;;;;;;;14.63;10.03;;;18.90;99.90;;;;;;5094934;28;20182;-79
2021/07/01 01:32:08;;;;;;;12.97;9.13;;;18.90;99.90;;;;;;5093509;28;20662;-79
2021/07/01 01:34:34;;;;;;;13.17;9.83;;;18.90;99.90;;;;;;5093138;28;20233;-79
2021/07/01 01:36:59;;;;;;;11.50;9.23;;;18.90;99.90;;;;;;5074049;28;20279;-80
2021/07/01 01:39:25;;;;;;;11.67;10.00;;;18.90;99.90;;;;;;5072670;28;20188;-79
2021/07/01 01:41:50;;;;;;;10.13;8.23;;;19.00;99.90;;;;;;5087153;28;20200;-79
2021/07/01 01:44:16;;;;;;;11.97;8.17;;;19.00;99.90;;;;;;5079061;28;20240;-80
2021/07/01 01:46:41;;;;;;;13.67;10.00;;;19.00;99.90;;;;;;5109676;28;20255;-79
2021/07/01 01:49:08;;;;;;;12.47;9.37;;;19.00;99.90;;;;;;5104244;28;20547;-80
2021/07/01 01:51:35;;;;;;;13.60;10.40;;;19.00;99.90;;;;;;5101288;28;20206;-80
2021/07/01 01:54:01;;;;;;;13.80;10.70;;;19.00;99.90;;;;;;5102704;28;20232;-80
2021/07/01 01:56:36;;;;;;;12.33;10.90;;;19.00;99.90;;;;;;5097959;28;20188;-79
2021/07/01 01:59:03;;;;;;;12.67;9.30;;;18.90;99.90;;;;;;5101071;28;20214;-80
2021/07/01 02:01:28;;;;;;;14.50;9.27;;;18.90;99.90;;;;;;5098925;28;20284;-79
2021/07/01 02:03:54;;;;;;;11.00;8.83;;;18.90;99.90;;;;;;5103889;28;20192;-81
2021/07/01 02:06:19;;;;;;;14.07;10.53;;;19.00;99.90;;;;;;5100103;28;20196;-79
2021/07/01 02:08:45;;;;;;;11.77;9.07;;;19.00;99.90;;;;;;5099478;28;20200;-79
2021/07/01 02:11:10;;;;;;;12.10;9.80;;;19.00;99.90;;;;;;5097937;28;20180;-79
2021/07/01 02:13:36;;;;;;;13.37;8.60;;;19.00;99.90;;;;;;5100166;28;20180;-79
2021/07/01 02:16:01;;;;;;;10.30;8.43;;;19.00;99.90;;;;;;5100276;28;20703;-80
2021/07/01 02:18:26;;;;;;;12.43;8.17;;;19.00;99.90;;;;;;5101395;28;20227;-80
2021/07/01 02:20:52;;;;;;;10.47;8.07;;;18.90;99.90;;;;;;5101931;28;20657;-79
2021/07/01 02:23:18;;;;;;;12.53;9.90;;;18.90;99.90;;;;;;5101235;28;20176;-79
2021/07/01 02:25:43;;;;;;;12.17;8.97;;;18.90;99.90;;;;;;5090329;28;20200;-78
2021/07/01 02:28:09;;;;;;;13.57;9.83;;;18.90;99.90;;;;;;5091525;28;20188;-77
2021/07/01 02:30:34;;;;;;;13.17;8.43;;;18.90;99.90;;;;;;5090497;28;20204;-77
2021/07/01 02:33:00;;;;;;;11.40;9.37;;;18.90;99.90;;;;;;5091264;28;20195;-78
2021/07/01 02:35:25;;;;;;;13.87;9.57;;;18.90;99.90;;;;;;5092835;28;20192;-77
2021/07/01 02:37:51;;;;;;;13.87;10.57;;;18.90;99.90;;;;;;5092194;28;20898;-78
2021/07/01 02:40:16;;;;;;;12.47;9.27;;;19.00;99.90;;;;;;5092274;28;20196;-77
2021/07/01 02:42:42;;;;;;;13.67;10.20;;;18.90;99.90;;;;;;5092517;28;20550;-77
2021/07/01 02:45:10;;;;;;;14.20;9.93;;;18.90;99.90;;;;;;5092607;28;20207;-78
2021/07/01 02:47:36;;;;;;;11.27;8.37;;;18.90;99.90;;;;;;5092936;28;20279;-78
2021/07/01 02:50:03;;;;;;;13.13;10.30;;;19.00;99.90;;;;;;5092699;28;20251;-78
2021/07/01 02:52:29;;;;;;;13.77;9.60;;;19.00;99.90;;;;;;5092168;28;20172;-77
2021/07/01 02:54:54;;;;;;;12.53;9.63;;;19.00;99.90;;;;;;5092068;28;20273;-77
2021/07/01 02:57:20;;;;;;;13.87;10.83;;;19.00;99.90;;;;;;5092426;28;20245;-78
2021/07/01 02:59:45;;;;;;;12.27;10.03;;;19.00;99.90;;;;;;5091584;28;20180;-77
2021/07/01 03:02:12;;;;;;;10.13;9.10;;;19.00;99.90;;;;;;5073973;28;20196;-77
2021/07/01 03:04:38;;;;;;;15.07;10.10;;;19.00;99.90;;;;;;5084313;28;20196;-78
2021/07/01 03:07:04;;;;;;;12.57;8.83;;;19.00;99.90;;;;;;5101498;28;20207;-77
2021/07/01 03:09:29;;;;;;;12.80;10.80;;;19.00;99.90;;;;;;5116896;28;20176;-77
2021/07/01 03:11:55;;;;;;;13.03;10.00;;;19.00;99.90;;;;;;5116801;28;20219;-77
2021/07/01 03:14:20;;;;;;;14.40;9.90;;;19.00;99.90;;;;;;5117306;28;20200;-77
2021/07/01 03:16:46;;;;;;;14.40;10.67;;;19.00;99.90;;;;;;5117236;28;20247;-76
2021/07/01 03:19:11;;;;;;;13.13;9.87;;;19.00;99.90;;;;;;5116816;28;20333;-76
2021/07/01 03:21:37;;;;;;;14.40;10.83;;;19.00;99.90;;;;;;5114442;28;20188;-76
2021/07/01 03:24:02;;;;;;;14.93;10.40;;;19.00;99.90;;;;;;5107422;28;20266;-76
2021/07/01 03:26:28;;;;;;;15.07;11.07;;;19.00;99.90;;;;;;5093591;28;20208;-76
2021/07/01 03:28:53;;;;;;;13.60;9.90;;;19.00;99.90;;;;;;5091488;28;20195;-76
2021/07/01 03:31:19;;;;;;;15.63;10.30;;;18.90;99.90;;;;;;5076762;28;20188;-77
2021/07/01 03:33:44;;;;;;;16.67;11.03;;;19.00;99.90;;;;;;5094447;28;20721;-77
2021/07/01 03:36:10;;;;;;;16.57;11.27;;;19.00;99.90;;;;;;5091141;28;20176;-77
2021/07/01 03:38:36;;;;;;;14.87;10.30;;;19.00;99.90;;;;;;5092087;28;20272;-75
2021/07/01 03:41:06;;;;;;;15.17;10.57;;;19.00;99.90;;;;;;5090735;28;20180;-76
2021/07/01 03:43:36;;;;;;;15.13;10.53;;;19.00;99.90;;;;;;5091059;28;20184;-76
2021/07/01 03:46:01;;;;;;;13.80;9.50;;;19.00;99.90;;;;;;5091159;28;20211;-78
2021/07/01 03:48:27;;;;;;;14.67;9.63;;;19.00;99.90;;;;;;5073141;28;20187;-77
2021/07/01 03:50:52;;;;;;;13.40;10.03;;;19.00;99.90;;;;;;5092918;28;20191;-77
2021/07/01 03:53:18;;;;;;;11.30;8.37;;;19.00;99.90;;;;;;5091461;28;20180;-78
2021/07/01 03:55:43;;;;;;;14.90;8.70;;;19.00;99.90;;;;;;5091525;28;20200;-77
2021/07/01 03:58:09;;;;;;;11.50;9.43;;;18.90;99.90;;;;;;5088615;28;20192;-77
2021/07/01 04:00:35;;;;;;;15.30;9.03;;;19.00;99.90;;;;;;5091111;28;20504;-76
2021/07/01 04:03:00;;;;;;;13.73;9.60;;;19.00;99.90;;;;;;5090484;28;20251;-76
2021/07/01 04:05:26;;;;;;;14.10;8.47;;;19.00;99.90;;;;;;5082614;28;20207;-77
2021/07/01 04:07:52;;;;;;;10.73;8.73;;;18.90;99.90;;;;;;5090623;28;20223;-76
2021/07/01 04:10:18;;;;;;;16.73;10.50;;;19.00;99.90;;;;;;5091258;28;20184;-76
2021/07/01 04:12:44;;;;;;;13.40;8.57;;;18.90;99.90;;;;;;5089374;28;20187;-77
2021/07/01 04:15:10;;;;;;;12.50;8.93;;;18.90;99.90;;;;;;5089409;28;20216;-77
2021/07/01 04:17:36;;;;;;;14.00;9.93;;;18.90;99.90;;;;;;5090088;28;20172;-77
2021/07/01 04:20:06;;;;;;;11.97;8.37;;;19.00;99.90;;;;;;5089647;28;20180;-77
2021/07/01 04:22:31;;;;;;;11.37;7.73;;;19.00;99.90;;;;;;5083983;28;20172;-77
2021/07/01 04:24:57;;;;;;;14.13;7.73;;;18.90;99.90;;;;;;5072555;28;20633;-77
2021/07/01 04:27:22;;;;;;;9.73;7.43;;;18.90;99.90;;;;;;5090505;28;20208;-77
2021/07/01 04:29:48;;;;;;;11.03;8.23;;;18.90;99.90;;;;;;5091607;28;20275;-76
2021/07/01 04:32:14;;;;;;;12.43;8.07;;;18.90;99.90;;;;;;5091144;28;20664;-76
2021/07/01 04:34:39;;;;;;;11.77;7.57;;;18.90;99.90;;;;;;5092270;28;20207;-77
2021/07/01 04:37:06;;;;;;;12.03;7.37;;;18.80;99.90;;;;;;5093425;28;20177;-76
2021/07/01 04:39:32;;;;;;;10.50;7.40;;;18.80;99.90;;;;;;5083993;28;20264;-77
2021/07/01 04:41:58;;;;;;;11.47;7.10;;;18.80;99.90;;;;;;5090847;28;20214;-77
2021/07/01 04:44:24;;;;;;;11.23;8.20;;;18.70;99.90;;;;;;5071660;28;20243;-77
2021/07/01 04:46:49;;;;;;;11.83;7.37;;;18.80;99.90;;;;;;5090328;28;20661;-76
2021/07/01 04:49:15;;;;;;;11.17;6.53;;;18.80;99.90;;;;;;5071044;28;20181;-77
2021/07/01 04:51:42;;;;;;;9.60;7.20;;;18.70;99.90;;;;;;5072456;28;20173;-78
2021/07/01 04:54:08;;;;;;;9.97;6.27;;;18.80;99.90;;;;;;5091501;28;20275;-78
2021/07/01 04:56:46;;;;;;;10.50;6.77;;;18.80;99.90;;;;;;5091684;28;20717;-77
2021/07/01 04:59:13;;;;;;;10.00;7.00;;;18.70;99.90;;;;;;5090935;28;20180;-77
2021/07/01 05:01:39;;;;;;;11.10;6.93;;;18.70;99.90;;;;;;5083593;28;20172;-77
2021/07/01 05:04:08;;;;;;;8.90;5.93;;;18.70;99.90;;;;;;5092477;28;20209;-77
2021/07/01 05:06:37;;;;;;;10.80;6.40;;;18.70;99.90;;;;;;5089991;28;20509;-76
2021/07/01 05:09:04;;;;;;;8.33;5.47;;;18.70;99.90;;;;;;5090571;28;20717;-76
2021/07/01 05:11:30;;;;;;;9.33;5.80;;;18.70;99.90;;;;;;5092402;28;20238;-78
2021/07/01 05:13:57;;;;;;;10.50;6.97;;;18.70;99.90;;;;;;5096229;28;20171;-76
2021/07/01 05:16:22;;;;;;;11.37;6.17;;;18.60;99.90;;;;;;5096121;28;20326;-76
2021/07/01 05:18:48;;;;;;;9.83;5.20;;;18.60;99.90;;;;;;5092008;28;20181;-76
2021/07/01 05:21:14;;;;;;;8.53;4.80;;;18.60;99.90;;;;;;5095492;28;20272;-77
2021/07/01 05:23:40;;;;;;;9.83;5.13;;;18.60;99.90;;;;;;5076583;28;20229;-77
2021/07/01 05:26:05;;;;;;;7.67;5.60;;;18.60;99.90;;;;;;5091603;28;20291;-76
2021/07/01 05:28:31;;;;;;;7.23;4.70;;;18.60;99.90;;;;;;5089684;28;20180;-76
2021/07/01 05:30:56;;;;;;;5.83;4.23;;;18.60;99.90;;;;;;5091426;28;20628;-77
2021/07/01 05:33:22;;;;;;;9.30;4.90;;;18.50;99.90;;;;;;5090656;28;20186;-76
2021/07/01 05:35:47;;;;;;;6.67;4.00;;;18.50;99.90;;;;;;5089782;28;20192;-76
2021/07/01 05:38:13;;;;;;;9.00;5.00;;;18.40;99.90;;;;;;5090943;28;20208;-77
2021/07/01 05:40:41;;;;;;;5.53;4.27;;;18.40;99.90;;;;;;5086956;28;20192;-77
2021/07/01 05:43:08;;;;;;;7.70;3.87;;;18.50;99.90;;;;;;5088028;28;20199;-77
2021/07/01 05:45:34;;;;;;;7.00;3.67;;;18.50;99.90;;;;;;5092999;28;20231;-77
2021/07/01 05:48:00;;;;;;;5.80;4.00;;;18.40;99.90;;;;;;5093862;28;20650;-77
2021/07/01 05:50:26;;;;;;;6.60;4.73;;;18.50;99.90;;;;;;5092477;28;20186;-77
2021/07/01 05:52:54;;;;;;;4.73;4.27;;;18.50;99.90;;;;;;5067394;28;20263;-77
2021/07/01 05:55:20;;;;;;;7.87;4.47;;;18.50;99.90;;;;;;5092834;28;20198;-77
2021/07/01 05:57:46;;;;;;;7.17;4.23;;;18.50;99.90;;;;;;5092541;28;20610;-77
2021/07/01 06:00:13;;;;;;;7.57;4.40;;;18.50;99.90;;;;;;5093361;28;20183;-76
2021/07/01 06:02:39;;;;;;;8.77;4.90;;;18.40;99.90;;;;;;5092189;28;20180;-76
2021/07/01 06:05:05;;;;;;;7.07;4.23;;;18.40;99.90;;;;;;5093238;28;20732;-76
2021/07/01 06:07:31;;;;;;;9.90;4.57;;;18.50;99.90;;;;;;5092477;28;20204;-77
2021/07/01 06:10:00;;;;;;;7.47;4.20;;;18.50;99.90;;;;;;5092689;28;20176;-76
2021/07/01 06:12:29;;;;;;;7.17;4.13;;;18.50;99.90;;;;;;5092168;28;20791;-77
2021/07/01 06:14:57;;;;;;;5.73;3.90;;;18.50;99.90;;;;;;5089758;28;20207;-76
2021/07/01 06:17:25;;;;;;;7.70;3.83;;;18.50;99.90;;;;;;5092954;28;20246;-76
2021/07/01 06:19:51;;;;;;;8.37;4.50;;;18.40;99.90;;;;;;5092479;28;20212;-76
2021/07/01 06:22:22;;;;;;;6.63;4.07;;;18.50;99.90;;;;;;5092449;28;20191;-76
2021/07/01 06:24:53;;;;;;;6.43;3.90;;;18.50;99.90;;;;;;5091849;28;20196;-76
2021/07/01 06:27:25;;;;;;;6.70;4.30;;;18.50;99.90;;;;;;5091920;28;20207;-76
2021/07/01 06:29:52;;;;;;;5.70;4.20;;;18.60;99.90;;;;;;5090472;28;20515;-76
2021/07/01 06:32:17;;;;;;;8.23;4.63;;;18.50;99.90;;;;;;5091939;28;20176;-76
2021/07/01 06:34:43;;;;;;;8.87;4.13;;;18.60;99.90;;;;;;5091698;28;20735;-76
2021/07/01 06:37:09;;;;;;;8.30;4.07;;;18.60;99.90;;;;;;5092661;28;20168;-76
2021/07/01 06:39:36;;;;;;;4.40;4.00;;;18.70;99.90;;;;;;5092184;28;20188;-76
2021/07/01 06:42:03;;;;;;;5.20;4.03;;;18.70;99.90;;;;;;5091021;28;20184;-77
2021/07/01 06:44:30;;;;;;;5.10;4.20;;;18.60;99.90;;;;;;5092273;28;20201;-77
2021/07/01 06:46:56;;;;;;;5.77;3.93;;;18.70;99.90;;;;;;5091462;28;20700;-77
2021/07/01 06:49:24;;;;;;;5.23;4.03;;;18.70;99.90;;;;;;5092294;28;20191;-77
2021/07/01 06:51:51;;;;;;;5.77;3.30;;;18.60;99.90;;;;;;5072863;28;20219;-76
2021/07/01 06:54:18;;;;;;;6.90;4.73;;;18.60;99.90;;;;;;5092069;28;20299;-76
2021/07/01 06:56:44;;;;;;;5.90;3.53;;;18.70;99.90;;;;;;5095772;28;20184;-77
2021/07/01 06:59:12;;;;;;;5.90;3.43;;;18.70;99.90;;;;;;5116869;28;20259;-76
2021/07/01 07:01:38;;;;;;;4.13;3.37;;;18.70;99.90;;;;;;5117085;28;20242;-76
2021/07/01 07:04:04;;;;;;;5.53;3.53;;;18.70;99.90;;;;;;5107867;28;20199;-77
2021/07/01 07:06:29;;;;;;;4.37;3.73;;;18.70;99.90;;;;;;5111829;28;20215;-77
2021/07/01 07:08:56;;;;;;;5.23;3.60;;;18.80;99.90;;;;;;5109826;28;20181;-77
2021/07/01 07:11:22;;;;;;;4.23;3.47;;;18.70;99.90;;;;;;5099321;28;20173;-77
2021/07/01 07:13:48;;;;;;;5.13;3.93;;;18.70;99.90;;;;;;5099200;28;20176;-77
2021/07/01 07:16:13;;;;;;;5.00;3.10;;;18.70;99.90;;;;;;5109657;22;20232;-69
2021/07/01 07:18:42;;;;;;;7.13;3.80;;;18.80;99.90;;;;;;5090619;28;20191;-69
2021/07/01 07:21:14;;;;;;;5.07;3.87;;;18.80;99.90;;;;;;5089463;28;20176;-68
2021/07/01 07:23:40;;;;;;;4.50;3.03;;;19.00;99.90;;;;;;5090837;28;20180;-68
2021/07/01 07:26:17;;;;;;;5.30;3.30;;;18.90;99.90;;;;;;5089598;28;20208;-68
2021/07/01 07:28:47;;;;;;;4.27;3.50;;;18.90;99.90;;;;;;5090750;28;20176;-68
2021/07/01 07:31:22;;;;;;;4.93;4.43;;;18.90;99.90;;;;;;5089959;28;20649;-69
2021/07/01 07:33:51;;;;;;;4.53;3.10;;;18.90;99.90;;;;;;5090257;28;20180;-68
2021/07/01 07:36:20;;;;;;;4.73;3.40;;;18.90;99.90;;;;;;5090644;28;20656;-68
2021/07/01 07:38:46;;;;;;;4.40;3.73;;;18.80;99.90;;;;;;5089621;28;20255;-68
2021/07/01 07:41:14;;;;;;;4.73;3.67;;;18.90;99.90;;;;;;5089618;28;20192;-68
2021/07/01 07:43:41;;;;;;;5.13;4.03;;;18.90;99.90;;;;;;5089896;28;20188;-67
2021/07/01 07:46:07;;;;;;;6.17;4.03;;;18.90;99.90;;;;;;5092599;28;20207;-68
2021/07/01 07:48:32;;;;;;;4.47;3.43;;;19.00;99.90;;;;;;5089247;28;20305;-72
2021/07/01 07:51:01;;;;;;;5.47;3.13;;;18.90;99.90;;;;;;5082625;28;20260;-67
2021/07/01 07:53:30;;;;;;;5.43;3.90;;;18.80;99.90;;;;;;5093115;28;20192;-68
2021/07/01 07:56:06;;;;;;;5.43;4.03;;;18.90;99.90;;;;;;5088624;28;20200;-67
2021/07/01 07:58:34;;;;;;;6.90;4.33;;;18.80;99.90;;;;;;5087157;28;20171;-67
2021/07/01 08:01:00;;;;;;;5.57;4.37;;;18.80;99.90;;;;;;5088623;28;20179;-68
2021/07/01 08:03:32;;;;;;;7.27;4.53;;;18.80;99.90;;;;;;5087985;28;20195;-68
2021/07/01 08:05:59;;;;;;;8.77;4.83;;;18.80;99.90;;;;;;5087790;28;20561;-67
2021/07/01 08:08:26;;;;;;;6.30;4.47;;;18.80;99.90;;;;;;5084948;28;20574;-68
2021/07/01 08:10:52;;;;;;;6.57;4.10;;;18.80;99.90;;;;;;5089581;28;20306;-67
2021/07/01 08:13:21;;;;;;;7.20;4.00;;;18.90;99.90;;;;;;5088220;28;20599;-68
2021/07/01 08:15:46;;;;;;;5.87;4.20;;;18.90;99.90;;;;;;5086769;28;20216;-68
2021/07/01 08:18:24;;;;;;;5.57;4.53;;;19.00;99.90;;;;;;5088032;28;20182;-68
2021/07/01 08:20:50;;;;;;;6.00;4.50;;;19.10;99.90;;;;;;5085020;28;20588;-67
2021/07/01 08:23:16;;;;;;;5.67;4.13;;;19.30;99.90;;;;;;5062747;28;20173;-68
2021/07/01 08:25:41;;;;;;;7.03;4.27;;;19.40;99.90;;;;;;5087964;28;20586;-68
2021/07/01 08:28:09;;;;;;;6.27;3.93;;;19.20;99.90;;;;;;5088021;28;20346;-68
2021/07/01 08:30:34;;;;;;;5.87;4.00;;;19.10;99.90;;;;;;5093374;28;20184;-71
2021/07/01 08:33:01;;;;;;;5.33;3.83;;;19.10;99.90;;;;;;5084462;28;20183;-69
2021/07/01 08:35:28;;;;;;;3.80;3.37;;;19.20;99.90;;;;;;5087302;28;20211;-68
2021/07/01 08:37:59;;;;;;;5.50;3.40;;;19.20;99.90;;;;;;5088855;28;20176;-68
2021/07/01 08:40:33;;;;;;;5.23;3.70;;;19.30;99.90;;;;;;5085843;28;20711;-68
2021/07/01 08:43:01;;;;;;;6.00;4.20;;;19.30;99.90;;;;;;5088790;28;20255;-68
2021/07/01 08:45:50;;;;;;;4.50;3.33;;;19.40;99.90;;;;;;5087753;28;20215;-69
2021/07/01 08:48:22;;;;;;;5.10;3.67;;;19.40;99.90;;;;;;5081993;28;20242;-69
2021/07/01 08:50:56;;;;;;;6.20;3.93;;;19.30;99.90;;;;;;5083247;28;20199;-67
2021/07/01 08:53:24;;;;;;;6.20;4.07;;;19.30;99.90;;;;;;5086669;28;20180;-67
2021/07/01 08:55:51;;;;;;;6.13;4.17;;;19.20;99.90;;;;;;5086480;28;20192;-68
2021/07/01 08:58:23;;;;;;;5.67;4.13;;;19.30;99.90;;;;;;5085644;28;20188;-68
2021/07/01 09:00:48;;;;;;;4.63;4.03;;;19.30;99.90;;;;;;5083729;28;20177;-68
2021/07/01 09:03:16;;;;;;;5.23;4.13;;;19.10;99.90;;;;;;5087598;28;20648;-69
2021/07/01 09:05:45;;;;;;;6.57;5.00;;;18.90;99.90;;;;;;5086332;28;20610;-71
2021/07/01 09:08:14;;;;;;;4.30;3.67;;;19.00;99.90;;;;;;5086142;28;20177;-69
2021/07/01 09:10:53;;;;;;;3.80;3.40;;;19.00;99.90;;;;;;5086393;28;20624;-70
2021/07/01 09:13:21;;;;;;;4.80;3.93;;;18.90;99.90;;;;;;5088642;28;20176;-69
2021/07/01 09:15:49;;;;;;;7.17;3.50;;;18.90;99.90;;;;;;5087379;28;20227;-69
2021/07/01 09:18:16;;;;;;;3.77;3.30;;;19.00;99.90;;;;;;5089481;28;20685;-69
2021/07/01 09:20:42;;;;;;;5.03;2.80;;;19.00;99.90;;;;;;5086752;28;20212;-70
2021/07/01 09:23:11;;;;;;;3.60;3.30;;;19.00;99.90;;;;;;5092936;28;20233;-69
2021/07/01 09:25:40;;;;;;;4.70;2.97;;;19.00;99.90;;;;;;5089989;28;20216;-69
2021/07/01 09:28:05;;;;;;;5.63;3.13;;;19.00;99.90;;;;;;5091741;28;20259;-72
2021/07/01 09:30:32;;;;;;;3.73;2.50;;;18.90;99.90;;;;;;5087824;28;20268;-69
2021/07/01 09:33:03;;;;;;;5.07;2.87;;;19.10;99.90;;;;;;5091363;28;20705;-70
2021/07/01 09:35:31;;;;;;;3.67;2.97;;;18.90;99.90;;;;;;5090089;28;20204;-70
2021/07/01 09:38:03;;;;;;;4.23;2.87;;;18.80;99.90;;;;;;5091446;28;20184;-65
2021/07/01 09:40:30;;;;;;;5.00;3.20;;;18.80;99.90;;;;;;5087417;28;20197;-67
2021/07/01 09:43:02;;;;;;;5.80;2.80;;;18.80;99.90;;;;;;5097713;28;20184;-68
2021/07/01 09:45:28;;;;;;;4.17;2.87;;;18.70;99.90;;;;;;5078367;28;20502;-68
2021/07/01 09:48:08;;;;;;;3.77;2.70;;;18.70;99.90;;;;;;5095174;28;20257;-67
2021/07/01 09:50:37;;;;;;;3.60;2.97;;;18.90;99.90;;;;;;5094033;28;20679;-67
2021/07/01 09:53:04;;;;;;;4.37;3.30;;;19.20;99.90;;;;;;5089622;28;20710;-68
2021/07/01 09:55:32;;;;;;;4.03;3.50;;;19.10;99.90;;;;;;5096102;28;20637;-67
2021/07/01 09:58:09;;;;;;;4.40;3.57;;;19.20;99.90;;;;;;5094365;28;20215;-68
2021/07/01 10:00:36;;;;;;;5.10;3.70;;;19.30;99.90;;;;;;5093289;28;20550;-68
2021/07/01 10:03:11;;;;;;;3.07;2.63;;;19.30;99.90;;;;;;5094675;28;20191;-69
2021/07/01 10:05:37;;;;;;;4.63;3.67;;;19.20;99.90;;;;;;5094536;28;20195;-67
2021/07/01 10:08:04;;;;;;;6.30;4.33;;;19.00;99.90;;;;;;5092547;28;20208;-67
2021/07/01 10:10:43;;;;;;;5.80;4.13;;;19.20;99.90;;;;;;5090801;28;20184;-67
2021/07/01 10:13:11;;;;;;;4.47;3.67;;;19.50;99.90;;;;;;5093972;28;20212;-68
2021/07/01 10:15:38;;;;;;;4.67;3.40;;;19.60;99.90;;;;;;5091715;28;20208;-68
2021/07/01 10:18:11;;;;;;;5.90;3.77;;;19.50;99.90;;;;;;5083904;28;20180;-68
2021/07/01 10:20:45;;;;;;;5.53;3.63;;;19.80;99.90;;;;;;5090308;28;20702;-67
2021/07/01 10:23:30;;;;;;;4.80;4.10;;;19.70;99.90;;;;;;5084195;28;20704;-67
2021/07/01 10:25:58;;;;;;;5.63;4.00;;;20.00;99.90;;;;;;5073035;28;20209;-69
2021/07/01 10:28:26;;;;;;;6.17;4.20;;;20.10;99.90;;;;;;5072583;28;20203;-68
2021/07/01 10:31:00;;;;;;;4.70;4.20;;;20.20;99.90;;;;;;5091226;28;20181;-68
2021/07/01 10:33:28;;;;;;;4.83;4.13;;;20.20;99.90;;;;;;5091748;28;20175;-66
2021/07/01 10:35:58;;;;;;;5.93;4.77;;;20.30;99.90;;;;;;5090499;28;20204;-68
2021/07/01 10:38:24;;;;;;;4.83;4.40;;;20.60;99.90;;;;;;5092021;28;20887;-69
2021/07/01 10:40:52;;;;;;;4.53;4.07;;;20.50;99.90;;;;;;5090853;28;20264;-68
2021/07/01 10:43:19;;;;;;;5.90;4.50;;;20.40;99.90;;;;;;5091259;28;20387;-71
2021/07/01 10:45:58;;;;;;;6.20;4.00;;;20.70;99.90;;;;;;5089558;28;20196;-68
2021/07/01 10:48:26;;;;;;;5.87;3.97;;;20.50;99.90;;;;;;5091622;28;20217;-68
2021/07/01 10:50:53;;;;;;;4.93;3.67;;;20.50;99.90;;;;;;5090194;28;20177;-67
2021/07/01 10:53:25;;;;;;;3.67;3.33;;;20.50;99.90;;;;;;5091181;28;20634;-67
2021/07/01 10:55:51;;;;;;;6.43;3.80;;;20.50;99.90;;;;;;5072149;28;20207;-69
2021/07/01 10:58:18;;;;;;;5.03;3.83;;;20.60;99.90;;;;;;5090487;28;20273;-68
2021/07/01 11:00:45;;;;;;;4.40;4.00;;;20.60;99.90;;;;;;5072679;28;20179;-68
2021/07/01 11:03:19;;;;;;;5.60;4.60;;;20.50;99.90;;;;;;5071956;28;20180;-68
2021/07/01 11:05:45;;;;;;;4.60;4.20;;;20.50;99.90;;;;;;5091653;28;20217;-69
2021/07/01 11:08:23;;;;;;;4.20;3.73;;;20.40;99.90;;;;;;5090087;28;20229;-69
2021/07/01 11:10:49;;;;;;;6.30;4.00;;;20.40;99.90;;;;;;5090703;28;20178;-68
2021/07/01 11:13:15;;;;;;;4.70;4.10;;;20.20;99.90;;;;;;5090382;28;20181;-67
2021/07/01 11:16:04;;;;;;;5.13;4.63;;;20.20;99.90;;;;;;5090686;28;20215;-67
2021/07/01 11:18:42;;;;;;;6.17;4.57;;;20.40;99.90;;;;;;5084328;28;20172;-69
2021/07/01 11:21:13;;;;;;;4.07;3.67;;;20.30;99.90;;;;;;5089493;28;20176;-66
2021/07/01 11:23:41;;;;;;;5.20;3.90;;;20.30;99.90;;;;;;5090187;28;20172;-67
2021/07/01 11:26:25;;;;;;;6.00;4.43;;;20.40;99.90;;;;;;5089596;28;20328;-67
2021/07/01 11:28:52;;;;;;;5.70;4.33;;;20.60;99.90;;;;;;5090212;28;20743;-67
2021/07/01 11:31:18;;;;;;;5.67;3.80;;;20.70;99.90;;;;;;5089447;28;20302;-67
2021/07/01 11:33:51;;;;;;;6.10;3.90;;;20.60;99.90;;;;;;5090666;28;20558;-71
2021/07/01 11:36:19;;;;;;;4.33;3.40;;;20.80;99.90;;;;;;5089323;28;20221;-67
2021/07/01 11:38:45;;;;;;;6.00;4.03;;;20.80;99.90;;;;;;5072507;28;20190;-67
2021/07/01 11:41:11;;;;;;;5.30;3.70;;;20.70;99.90;;;;;;5089399;28;20211;-68
2021/07/01 11:43:40;;;;;;;6.90;4.23;;;20.60;99.90;;;;;;5090382;28;20603;-68
2021/07/01 11:46:06;;;;;;;5.27;4.30;;;20.80;99.90;;;;;;5089240;28;20210;-69
2021/07/01 11:48:33;;;;;;;8.67;6.43;;;20.80;99.90;;;;;;5090273;28;20207;-68
2021/07/01 11:51:02;;;;;;;5.87;5.10;;;21.10;99.90;;;;;;5090592;28;20181;-69
2021/07/01 11:53:28;;;;;;;5.90;4.67;;;21.20;99.90;;;;;;5076294;28;20183;-68
2021/07/01 11:55:57;;;;;;;5.93;5.20;;;21.20;99.90;;;;;;5091085;28;20685;-68
2021/07/01 11:58:24;;;;;;;7.83;4.87;;;21.20;99.90;;;;;;5089700;28;20191;-68
2021/07/01 12:00:50;;;;;;;5.00;4.50;;;21.10;99.90;;;;;;5089477;28;20377;-68
2021/07/01 12:03:15;;;;;;;5.53;4.83;;;21.00;99.90;;;;;;5089002;28;20240;-68
2021/07/01 12:05:44;;;;;;;5.47;3.53;;;20.90;99.90;;;;;;5089297;28;20201;-68
2021/07/01 12:08:11;;;;;;;4.73;4.30;;;20.50;99.90;;;;;;5087965;28;20212;-68
2021/07/01 12:10:37;;;;;;;5.60;3.90;;;20.50;99.90;;;;;;5088624;28;20430;-68
2021/07/01 12:13:03;;;;;;;5.23;4.30;;;20.50;99.90;;;;;;5089282;28;20175;-68
2021/07/01 12:15:28;;;;;;;6.57;4.50;;;20.50;99.90;;;;;;5088661;28;20220;-68
2021/07/01 12:18:03;;;;;;;4.57;4.13;;;20.40;99.90;;;;;;5089294;28;20618;-67
2021/07/01 12:20:37;;;;;;;5.40;4.63;;;20.70;99.90;;;;;;5088064;28;21954;-67
2021/07/01 12:23:04;;;;;;;7.20;4.07;;;20.70;99.90;;;;;;5089862;28;20171;-68
2021/07/01 12:25:30;;;;;;;4.37;3.97;;;20.50;99.90;;;;;;5088152;28;20228;-68
2021/07/01 12:28:04;;;;;;;6.50;5.13;;;20.50;99.90;;;;;;5088986;28;20201;-67
2021/07/01 12:30:57;;;;;;;6.77;5.63;;;20.80;99.90;;;;;;5088835;28;20274;-67
2021/07/01 12:33:33;;;;;;;7.03;4.77;;;20.80;99.90;;;;;;5070781;28;20182;-68
2021/07/01 12:36:08;;;;;;;8.13;5.30;;;21.10;99.90;;;;;;5063889;28;20198;-68
2021/07/01 12:38:34;;;;;;;7.27;4.80;;;21.10;99.90;;;;;;5089114;28;20201;-68
2021/07/01 12:41:03;;;;;;;9.73;5.00;;;21.30;99.90;;;;;;5088638;28;20212;-68
2021/07/01 12:43:44;;;;;;;5.43;4.33;;;21.30;99.90;;;;;;5088685;28;20204;-67
2021/07/01 12:46:11;;;;;;;5.57;4.60;;;21.20;99.90;;;;;;5087240;28;20193;-68